Main page
METAR-TAF:

METAR-TAF

Airports :

Yazd, Iran

Shahid Sadooghi Airport

latitude: 31-54N, longitude: 054-24E, elevation: 1238 m

Current weather observation

The report was made 33 minutes ago, at 20:00 UTC
Wind 8 kt from the Southeast
Temperature 20°C
Humidity 56%
Pressure 1022 hPa
Visibility: 5000 m
Few clouds at a height of 3000 ft
Scattered clouds at a height of 3500 ft
Overcast at a height of 9000 ft
widespread dust

METAR: OIYY 302000Z 14008KT 5000 DU FEW030 SCT035 OVC090 20/11 Q1022

Time: 01:03 (20:33 UTC)


TAF: missing

Weather observations and forecasts of more than 4000 airports (METAR and TAF reports).

The available stations are represented by yellow and red dots on the map.

Hover mouse over dot to see the name of the station.

Then click to see weather observations and forecasts.

To change the map : click on the green buttons with a black cross to zoom in, on the green button with a dash to zoom out, or on the green arrows for adjacent maps.


METAR-TAF: